sensor_id;sensor_type;location;lat;lon;timestamp;temperature;humidity
64918;HTU21D;52176;44.858;38.372;2022-10-19T00:01:42;6.98;88.82
64918;HTU21D;52176;44.858;38.372;2022-10-19T00:04:08;6.97;88.82
64918;HTU21D;52176;44.858;38.372;2022-10-19T00:06:34;6.98;88.83
64918;HTU21D;52176;44.858;38.372;2022-10-19T00:09:14;7.02;88.87
64918;HTU21D;52176;44.858;38.372;2022-10-19T00:11:40;7.07;88.82
64918;HTU21D;52176;44.858;38.372;2022-10-19T00:14:07;7.13;88.78
64918;HTU21D;52176;44.858;38.372;2022-10-19T00:16:34;7.17;88.72
64918;HTU21D;52176;44.858;38.372;2022-10-19T00:19:02;7.20;88.71
64918;HTU21D;52176;44.858;38.372;2022-10-19T00:21:28;7.24;88.67
64918;HTU21D;52176;44.858;38.372;2022-10-19T00:23:54;7.27;88.67
64918;HTU21D;52176;44.858;38.372;2022-10-19T00:26:20;7.29;88.69
64918;HTU21D;52176;44.858;38.372;2022-10-19T00:28:46;7.30;88.70
64918;HTU21D;52176;44.858;38.372;2022-10-19T00:31:13;7.30;88.73
64918;HTU21D;52176;44.858;38.372;2022-10-19T00:33:39;7.31;88.76
64918;HTU21D;52176;44.858;38.372;2022-10-19T00:36:05;7.30;88.79
64918;HTU21D;52176;44.858;38.372;2022-10-19T00:38:31;7.30;88.86
64918;HTU21D;52176;44.858;38.372;2022-10-19T00:40:57;7.27;88.89
64918;HTU21D;52176;44.858;38.372;2022-10-19T00:43:24;7.26;88.95
64918;HTU21D;52176;44.858;38.372;2022-10-19T00:45:50;7.26;88.97
64918;HTU21D;52176;44.858;38.372;2022-10-19T00:48:20;7.23;88.95
64918;HTU21D;52176;44.858;38.372;2022-10-19T00:50:48;7.19;88.96
64918;HTU21D;52176;44.858;38.372;2022-10-19T00:53:14;7.14;88.97
64918;HTU21D;52176;44.858;38.372;2022-10-19T00:55:40;7.08;89.00
64918;HTU21D;52176;44.858;38.372;2022-10-19T00:58:05;7.02;89.02
64918;HTU21D;52176;44.858;38.372;2022-10-19T01:00:32;6.95;89.04
64918;HTU21D;52176;44.858;38.372;2022-10-19T01:02:59;6.88;89.09
64918;HTU21D;52176;44.858;38.372;2022-10-19T01:05:25;6.83;89.15
64918;HTU21D;52176;44.858;38.372;2022-10-19T01:07:52;6.75;89.18
64918;HTU21D;52176;44.858;38.372;2022-10-19T01:10:18;6.71;89.21
64918;HTU21D;52176;44.858;38.372;2022-10-19T01:28:47;6.33;89.12
64918;HTU21D;52176;44.858;38.372;2022-10-19T01:31:31;6.27;89.12
64918;HTU21D;52176;44.858;38.372;2022-10-19T01:36:49;6.17;89.05
64918;HTU21D;52176;44.858;38.372;2022-10-19T01:39:23;6.13;89.05
64918;HTU21D;52176;44.858;38.372;2022-10-19T01:44:24;6.04;89.07
64918;HTU21D;52176;44.858;38.372;2022-10-19T01:46:56;6.01;89.07
64918;HTU21D;52176;44.858;38.372;2022-10-19T01:51:56;5.97;89.14
64918;HTU21D;52176;44.858;38.372;2022-10-19T01:54:23;5.96;89.11
64918;HTU21D;52176;44.858;38.372;2022-10-19T01:56:51;5.95;89.09
64918;HTU21D;52176;44.858;38.372;2022-10-19T01:59:17;5.92;89.08
64918;HTU21D;52176;44.858;38.372;2022-10-19T02:01:45;5.92;89.08
64918;HTU21D;52176;44.858;38.372;2022-10-19T02:04:12;5.90;89.12
64918;HTU21D;52176;44.858;38.372;2022-10-19T02:06:40;5.92;89.10
64918;HTU21D;52176;44.858;38.372;2022-10-19T02:09:06;5.93;89.06
64918;HTU21D;52176;44.858;38.372;2022-10-19T02:11:31;5.94;89.04
64918;HTU21D;52176;44.858;38.372;2022-10-19T02:13:59;5.92;89.02
64918;HTU21D;52176;44.858;38.372;2022-10-19T02:16:29;5.94;89.02
64918;HTU21D;52176;44.858;38.372;2022-10-19T02:18:56;5.95;89.05
64918;HTU21D;52176;44.858;38.372;2022-10-19T02:21:23;5.96;89.03
64918;HTU21D;52176;44.858;38.372;2022-10-19T02:23:50;5.98;89.01
64918;HTU21D;52176;44.858;38.372;2022-10-19T02:26:16;5.98;89.03
64918;HTU21D;52176;44.858;38.372;2022-10-19T02:28:42;5.96;89.01
64918;HTU21D;52176;44.858;38.372;2022-10-19T02:31:08;5.97;89.05
64918;HTU21D;52176;44.858;38.372;2022-10-19T02:33:35;5.95;89.09
64918;HTU21D;52176;44.858;38.372;2022-10-19T02:36:01;5.94;89.09
64918;HTU21D;52176;44.858;38.372;2022-10-19T02:38:27;5.94;89.09
64918;HTU21D;52176;44.858;38.372;2022-10-19T02:43:25;5.90;89.09
64918;HTU21D;52176;44.858;38.372;2022-10-19T02:46:01;5.90;89.12
64918;HTU21D;52176;44.858;38.372;2022-10-19T02:48:29;5.89;89.10
64918;HTU21D;52176;44.858;38.372;2022-10-19T02:50:56;5.87;89.09
64918;HTU21D;52176;44.858;38.372;2022-10-19T02:53:22;5.84;89.09
64918;HTU21D;52176;44.858;38.372;2022-10-19T02:55:48;5.81;89.09
64918;HTU21D;52176;44.858;38.372;2022-10-19T02:58:14;5.76;89.09
64918;HTU21D;52176;44.858;38.372;2022-10-19T03:00:40;5.72;89.13
64918;HTU21D;52176;44.858;38.372;2022-10-19T03:03:06;5.71;89.17
64918;HTU21D;52176;44.858;38.372;2022-10-19T03:05:32;5.70;89.16
64918;HTU21D;52176;44.858;38.372;2022-10-19T03:07:57;5.70;89.19
64918;HTU21D;52176;44.858;38.372;2022-10-19T03:10:23;5.72;89.17
64918;HTU21D;52176;44.858;38.372;2022-10-19T03:12:49;5.71;89.15
64918;HTU21D;52176;44.858;38.372;2022-10-19T03:15:16;5.69;89.09
64918;HTU21D;52176;44.858;38.372;2022-10-19T03:17:42;5.66;89.09
64918;HTU21D;52176;44.858;38.372;2022-10-19T03:20:08;5.62;89.07
64918;HTU21D;52176;44.858;38.372;2022-10-19T03:22:34;5.57;89.12
64918;HTU21D;52176;44.858;38.372;2022-10-19T03:24:59;5.54;89.16
64918;HTU21D;52176;44.858;38.372;2022-10-19T03:27:25;5.52;89.20
64918;HTU21D;52176;44.858;38.372;2022-10-19T03:29:51;5.51;89.17
64918;HTU21D;52176;44.858;38.372;2022-10-19T03:32:17;5.50;89.16
64918;HTU21D;52176;44.858;38.372;2022-10-19T03:34:43;5.50;89.17
64918;HTU21D;52176;44.858;38.372;2022-10-19T03:37:08;5.49;89.15
64918;HTU21D;52176;44.858;38.372;2022-10-19T03:39:34;5.51;89.16
64918;HTU21D;52176;44.858;38.372;2022-10-19T03:42:00;5.50;89.15
64918;HTU21D;52176;44.858;38.372;2022-10-19T03:44:26;5.52;89.14
64918;HTU21D;52176;44.858;38.372;2022-10-19T03:46:52;5.54;89.15
64918;HTU21D;52176;44.858;38.372;2022-10-19T03:49:17;5.55;89.09
64918;HTU21D;52176;44.858;38.372;2022-10-19T03:51:43;5.57;89.15
64918;HTU21D;52176;44.858;38.372;2022-10-19T03:54:13;5.59;89.15
64918;HTU21D;52176;44.858;38.372;2022-10-19T03:56:39;5.62;89.13
64918;HTU21D;52176;44.858;38.372;2022-10-19T03:59:05;5.65;89.09
64918;HTU21D;52176;44.858;38.372;2022-10-19T04:01:32;5.68;89.10
64918;HTU21D;52176;44.858;38.372;2022-10-19T04:03:59;5.74;89.12
64918;HTU21D;52176;44.858;38.372;2022-10-19T04:06:29;5.78;89.12
64918;HTU21D;52176;44.858;38.372;2022-10-19T04:08:55;5.83;89.09
64918;HTU21D;52176;44.858;38.372;2022-10-19T04:11:22;5.91;89.04
64918;HTU21D;52176;44.858;38.372;2022-10-19T04:13:52;5.98;89.02
64918;HTU21D;52176;44.858;38.372;2022-10-19T04:16:18;6.06;88.96
64918;HTU21D;52176;44.858;38.372;2022-10-19T04:18:44;6.12;88.89
64918;HTU21D;52176;44.858;38.372;2022-10-19T04:21:18;6.20;88.84
64918;HTU21D;52176;44.858;38.372;2022-10-19T04:23:44;6.28;88.78
64918;HTU21D;52176;44.858;38.372;2022-10-19T04:26:10;6.37;88.79
64918;HTU21D;52176;44.858;38.372;2022-10-19T04:28:36;6.46;88.68
64918;HTU21D;52176;44.858;38.372;2022-10-19T04:31:02;6.53;88.66
64918;HTU21D;52176;44.858;38.372;2022-10-19T04:33:28;6.60;88.65
64918;HTU21D;52176;44.858;38.372;2022-10-19T04:35:58;6.69;88.60
64918;HTU21D;52176;44.858;38.372;2022-10-19T04:38:24;6.78;88.55
64918;HTU21D;52176;44.858;38.372;2022-10-19T04:40:50;6.87;88.55
64918;HTU21D;52176;44.858;38.372;2022-10-19T04:43:16;6.95;88.52
64918;HTU21D;52176;44.858;38.372;2022-10-19T04:45:42;7.04;88.51
64918;HTU21D;52176;44.858;38.372;2022-10-19T04:48:07;7.15;88.46
64918;HTU21D;52176;44.858;38.372;2022-10-19T04:50:33;7.25;88.45
64918;HTU21D;52176;44.858;38.372;2022-10-19T04:52:59;7.35;88.45
64918;HTU21D;52176;44.858;38.372;2022-10-19T04:55:25;7.46;88.37
64918;HTU21D;52176;44.858;38.372;2022-10-19T04:57:51;7.57;88.34
64918;HTU21D;52176;44.858;38.372;2022-10-19T05:00:16;7.67;88.31
64918;HTU21D;52176;44.858;38.372;2022-10-19T05:02:43;7.79;88.30
64918;HTU21D;52176;44.858;38.372;2022-10-19T05:05:09;7.90;88.24
64918;HTU21D;52176;44.858;38.372;2022-10-19T05:07:35;8.02;88.22
64918;HTU21D;52176;44.858;38.372;2022-10-19T05:10:01;8.13;88.19
64918;HTU21D;52176;44.858;38.372;2022-10-19T05:12:27;8.29;88.13
64918;HTU21D;52176;44.858;38.372;2022-10-19T05:14:53;8.39;88.04
64918;HTU21D;52176;44.858;38.372;2022-10-19T05:17:18;8.52;88.02
64918;HTU21D;52176;44.858;38.372;2022-10-19T05:19:44;8.61;87.96
64918;HTU21D;52176;44.858;38.372;2022-10-19T05:22:10;8.74;87.93
64918;HTU21D;52176;44.858;38.372;2022-10-19T05:24:36;8.88;87.82
64918;HTU21D;52176;44.858;38.372;2022-10-19T05:27:01;8.98;87.73
64918;HTU21D;52176;44.858;38.372;2022-10-19T05:29:27;9.10;87.67
64918;HTU21D;52176;44.858;38.372;2022-10-19T05:31:53;9.23;87.66
64918;HTU21D;52176;44.858;38.372;2022-10-19T05:34:19;9.38;87.54
64918;HTU21D;52176;44.858;38.372;2022-10-19T05:36:45;9.52;87.47
64918;HTU21D;52176;44.858;38.372;2022-10-19T05:39:12;9.70;87.33
64918;HTU21D;52176;44.858;38.372;2022-10-19T05:41:38;9.86;87.17
64918;HTU21D;52176;44.858;38.372;2022-10-19T05:44:06;10.00;87.10
64918;HTU21D;52176;44.858;38.372;2022-10-19T05:46:32;10.14;87.02
64918;HTU21D;52176;44.858;38.372;2022-10-19T05:48:58;10.25;86.98
64918;HTU21D;52176;44.858;38.372;2022-10-19T05:51:24;10.38;86.90
64918;HTU21D;52176;44.858;38.372;2022-10-19T05:53:54;10.46;86.83
64918;HTU21D;52176;44.858;38.372;2022-10-19T05:56:21;10.63;86.74
64918;HTU21D;52176;44.858;38.372;2022-10-19T05:58:47;10.78;86.60
64918;HTU21D;52176;44.858;38.372;2022-10-19T06:01:14;10.96;86.44
64918;HTU21D;52176;44.858;38.372;2022-10-19T06:03:40;11.12;86.19
64918;HTU21D;52176;44.858;38.372;2022-10-19T06:06:06;11.31;86.04
64918;HTU21D;52176;44.858;38.372;2022-10-19T06:08:32;11.56;85.80
64918;HTU21D;52176;44.858;38.372;2022-10-19T06:11:17;11.77;85.48
64918;HTU21D;52176;44.858;38.372;2022-10-19T06:13:44;12.17;85.16
64918;HTU21D;52176;44.858;38.372;2022-10-19T06:16:11;12.69;84.48
64918;HTU21D;52176;44.858;38.372;2022-10-19T06:18:37;13.20;83.70
64918;HTU21D;52176;44.858;38.372;2022-10-19T06:21:04;13.73;83.00
64918;HTU21D;52176;44.858;38.372;2022-10-19T06:23:31;14.18;82.39
64918;HTU21D;52176;44.858;38.372;2022-10-19T06:25:57;14.55;82.02
64918;HTU21D;52176;44.858;38.372;2022-10-19T06:28:22;14.89;81.65
64918;HTU21D;52176;44.858;38.372;2022-10-19T06:30:48;15.21;81.23
64918;HTU21D;52176;44.858;38.372;2022-10-19T06:33:14;15.56;80.75
64918;HTU21D;52176;44.858;38.372;2022-10-19T06:35:40;15.96;80.17
64918;HTU21D;52176;44.858;38.372;2022-10-19T06:38:07;16.31;79.56
64918;HTU21D;52176;44.858;38.372;2022-10-19T06:40:34;16.69;78.96
64918;HTU21D;52176;44.858;38.372;2022-10-19T06:43:00;17.06;78.31
64918;HTU21D;52176;44.858;38.372;2022-10-19T06:45:26;17.41;77.65
64918;HTU21D;52176;44.858;38.372;2022-10-19T06:47:52;17.78;76.94
64918;HTU21D;52176;44.858;38.372;2022-10-19T06:50:18;18.13;76.17
64918;HTU21D;52176;44.858;38.372;2022-10-19T06:52:45;18.52;75.54
64918;HTU21D;52176;44.858;38.372;2022-10-19T06:55:11;18.89;74.73
64918;HTU21D;52176;44.858;38.372;2022-10-19T06:57:37;19.26;73.87
64918;HTU21D;52176;44.858;38.372;2022-10-19T07:00:05;19.62;73.10
64918;HTU21D;52176;44.858;38.372;2022-10-19T07:02:32;20.00;72.51
64918;HTU21D;52176;44.858;38.372;2022-10-19T07:04:58;20.32;71.75
64918;HTU21D;52176;44.858;38.372;2022-10-19T07:07:23;20.63;71.06
64918;HTU21D;52176;44.858;38.372;2022-10-19T07:09:49;20.91;70.37
64918;HTU21D;52176;44.858;38.372;2022-10-19T07:12:15;21.19;69.58
64918;HTU21D;52176;44.858;38.372;2022-10-19T07:14:41;21.42;68.81
64918;HTU21D;52176;44.858;38.372;2022-10-19T07:17:07;21.66;68.07
64918;HTU21D;52176;44.858;38.372;2022-10-19T07:19:34;21.95;67.29
64918;HTU21D;52176;44.858;38.372;2022-10-19T07:22:00;22.23;66.55
64918;HTU21D;52176;44.858;38.372;2022-10-19T07:24:26;22.50;65.87
64918;HTU21D;52176;44.858;38.372;2022-10-19T07:26:52;22.72;65.21
64918;HTU21D;52176;44.858;38.372;2022-10-19T07:29:17;22.93;64.67
64918;HTU21D;52176;44.858;38.372;2022-10-19T07:31:43;23.16;64.00
64918;HTU21D;52176;44.858;38.372;2022-10-19T07:34:10;23.41;63.36
64918;HTU21D;52176;44.858;38.372;2022-10-19T07:36:37;23.66;62.71
64918;HTU21D;52176;44.858;38.372;2022-10-19T07:39:04;23.87;62.24
64918;HTU21D;52176;44.858;38.372;2022-10-19T07:41:31;24.09;61.73
64918;HTU21D;52176;44.858;38.372;2022-10-19T07:43:56;24.30;61.33
64918;HTU21D;52176;44.858;38.372;2022-10-19T07:46:23;24.56;60.80
64918;HTU21D;52176;44.858;38.372;2022-10-19T07:48:50;24.83;60.01
64918;HTU21D;52176;44.858;38.372;2022-10-19T07:51:17;25.03;59.28
64918;HTU21D;52176;44.858;38.372;2022-10-19T07:53:43;25.18;59.09
64918;HTU21D;52176;44.858;38.372;2022-10-19T07:56:11;25.35;58.68
64918;HTU21D;52176;44.858;38.372;2022-10-19T07:58:37;25.56;58.29
64918;HTU21D;52176;44.858;38.372;2022-10-19T08:01:04;25.79;57.80
64918;HTU21D;52176;44.858;38.372;2022-10-19T08:03:31;25.91;57.32
64918;HTU21D;52176;44.858;38.372;2022-10-19T08:06:00;25.99;57.15
64918;HTU21D;52176;44.858;38.372;2022-10-19T08:08:27;26.17;56.70
64918;HTU21D;52176;44.858;38.372;2022-10-19T08:10:53;26.35;56.19
64918;HTU21D;52176;44.858;38.372;2022-10-19T08:13:18;26.56;55.78
64918;HTU21D;52176;44.858;38.372;2022-10-19T08:15:44;26.73;55.04
64918;HTU21D;52176;44.858;38.372;2022-10-19T08:18:10;26.84;54.98
64918;HTU21D;52176;44.858;38.372;2022-10-19T08:20:36;26.85;54.81
64918;HTU21D;52176;44.858;38.372;2022-10-19T08:23:04;26.80;54.81
64918;HTU21D;52176;44.858;38.372;2022-10-19T08:25:30;26.84;54.85
64918;HTU21D;52176;44.858;38.372;2022-10-19T08:27:56;26.87;54.59
64918;HTU21D;52176;44.858;38.372;2022-10-19T08:30:22;26.84;54.48
64918;HTU21D;52176;44.858;38.372;2022-10-19T08:32:47;26.80;54.36
64918;HTU21D;52176;44.858;38.372;2022-10-19T08:35:13;26.86;54.29
64918;HTU21D;52176;44.858;38.372;2022-10-19T08:37:39;26.95;54.15
64918;HTU21D;52176;44.858;38.372;2022-10-19T08:40:05;27.11;53.94
64918;HTU21D;52176;44.858;38.372;2022-10-19T08:45:20;27.37;53.39
64918;HTU21D;52176;44.858;38.372;2022-10-19T08:50:28;27.52;52.98
64918;HTU21D;52176;44.858;38.372;2022-10-19T08:52:59;27.74;52.52
64918;HTU21D;52176;44.858;38.372;2022-10-19T09:01:02;28.16;51.21
64918;HTU21D;52176;44.858;38.372;2022-10-19T09:08:48;28.28;50.85
64918;HTU21D;52176;44.858;38.372;2022-10-19T09:11:15;28.33;50.75
64918;HTU21D;52176;44.858;38.372;2022-10-19T09:13:45;28.26;50.37
64918;HTU21D;52176;44.858;38.372;2022-10-19T09:16:13;28.25;50.50
64918;HTU21D;52176;44.858;38.372;2022-10-19T09:18:39;28.39;50.45
64918;HTU21D;52176;44.858;38.372;2022-10-19T09:23:46;28.62;49.89
64918;HTU21D;52176;44.858;38.372;2022-10-19T09:26:16;28.63;49.97
64918;HTU21D;52176;44.858;38.372;2022-10-19T09:29:02;28.64;49.83
64918;HTU21D;52176;44.858;38.372;2022-10-19T09:31:31;28.62;49.79
64918;HTU21D;52176;44.858;38.372;2022-10-19T09:34:02;28.53;49.82
64918;HTU21D;52176;44.858;38.372;2022-10-19T09:36:34;28.47;49.73
64918;HTU21D;52176;44.858;38.372;2022-10-19T09:39:00;28.40;50.11
64918;HTU21D;52176;44.858;38.372;2022-10-19T09:41:27;28.38;49.92
64918;HTU21D;52176;44.858;38.372;2022-10-19T09:43:53;28.20;50.14
64918;HTU21D;52176;44.858;38.372;2022-10-19T09:48:52;28.16;50.39
64918;HTU21D;52176;44.858;38.372;2022-10-19T09:51:18;28.04;50.39
64918;HTU21D;52176;44.858;38.372;2022-10-19T09:53:53;27.98;50.34
64918;HTU21D;52176;44.858;38.372;2022-10-19T09:56:20;27.88;50.64
64918;HTU21D;52176;44.858;38.372;2022-10-19T09:58:47;27.94;50.85
64918;HTU21D;52176;44.858;38.372;2022-10-19T10:04:08;27.83;50.63
64918;HTU21D;52176;44.858;38.372;2022-10-19T10:06:34;27.58;51.15
64918;HTU21D;52176;44.858;38.372;2022-10-19T10:09:01;27.53;51.34
64918;HTU21D;52176;44.858;38.372;2022-10-19T10:11:46;27.63;51.50
64918;HTU21D;52176;44.858;38.372;2022-10-19T10:14:20;27.72;51.23
64918;HTU21D;52176;44.858;38.372;2022-10-19T10:16:47;27.67;51.27
64918;HTU21D;52176;44.858;38.372;2022-10-19T10:19:14;27.60;51.52
64918;HTU21D;52176;44.858;38.372;2022-10-19T10:26:45;27.37;51.58
64918;HTU21D;52176;44.858;38.372;2022-10-19T10:31:46;27.00;52.04
64918;HTU21D;52176;44.858;38.372;2022-10-19T10:36:58;26.66;52.50
64918;HTU21D;52176;44.858;38.372;2022-10-19T10:39:24;26.50;52.75
64918;HTU21D;52176;44.858;38.372;2022-10-19T10:41:51;26.48;52.99
64918;HTU21D;52176;44.858;38.372;2022-10-19T10:44:22;26.57;52.88
64918;HTU21D;52176;44.858;38.372;2022-10-19T10:49:23;26.84;52.24
64918;HTU21D;52176;44.858;38.372;2022-10-19T10:51:51;26.70;52.37
64918;HTU21D;52176;44.858;38.372;2022-10-19T10:56:58;26.41;53.06
64918;HTU21D;52176;44.858;38.372;2022-10-19T10:59:31;26.30;53.04
64918;HTU21D;52176;44.858;38.372;2022-10-19T11:04:29;26.10;53.39
64918;HTU21D;52176;44.858;38.372;2022-10-19T11:07:00;26.05;53.76
64918;HTU21D;52176;44.858;38.372;2022-10-19T11:09:35;26.05;53.56
64918;HTU21D;52176;44.858;38.372;2022-10-19T11:12:03;26.02;53.78
64918;HTU21D;52176;44.858;38.372;2022-10-19T11:14:37;25.94;53.70
64918;HTU21D;52176;44.858;38.372;2022-10-19T11:17:14;25.87;53.85
64918;HTU21D;52176;44.858;38.372;2022-10-19T11:19:41;25.86;54.02
64918;HTU21D;52176;44.858;38.372;2022-10-19T11:30:13;25.30;54.75
64918;HTU21D;52176;44.858;38.372;2022-10-19T11:35:29;25.14;55.32
64918;HTU21D;52176;44.858;38.372;2022-10-19T11:38:09;25.01;55.39
64918;HTU21D;52176;44.858;38.372;2022-10-19T11:40:39;24.87;55.76
64918;HTU21D;52176;44.858;38.372;2022-10-19T11:58:23;24.41;57.12
64918;HTU21D;52176;44.858;38.372;2022-10-19T12:06:26;24.14;57.74
64918;HTU21D;52176;44.858;38.372;2022-10-19T12:11:26;24.08;57.90
64918;HTU21D;52176;44.858;38.372;2022-10-19T12:14:04;24.01;57.97
64918;HTU21D;52176;44.858;38.372;2022-10-19T12:16:37;23.95;58.12
64918;HTU21D;52176;44.858;38.372;2022-10-19T12:19:04;23.83;58.41
64918;HTU21D;52176;44.858;38.372;2022-10-19T12:21:40;23.73;58.64
64918;HTU21D;52176;44.858;38.372;2022-10-19T12:24:12;23.64;58.77
64918;HTU21D;52176;44.858;38.372;2022-10-19T12:26:38;23.58;58.95
64918;HTU21D;52176;44.858;38.372;2022-10-19T12:29:16;23.51;59.11
64918;HTU21D;52176;44.858;38.372;2022-10-19T12:31:43;23.44;59.21
64918;HTU21D;52176;44.858;38.372;2022-10-19T12:36:43;23.31;59.58
64918;HTU21D;52176;44.858;38.372;2022-10-19T12:39:17;23.23;59.73
64918;HTU21D;52176;44.858;38.372;2022-10-19T12:47:18;23.00;60.32
64918;HTU21D;52176;44.858;38.372;2022-10-19T12:52:14;22.92;60.48
64918;HTU21D;52176;44.858;38.372;2022-10-19T12:54:41;22.86;60.60
64918;HTU21D;52176;44.858;38.372;2022-10-19T12:57:26;22.80;60.72
64918;HTU21D;52176;44.858;38.372;2022-10-19T12:59:57;22.75;60.72
64918;HTU21D;52176;44.858;38.372;2022-10-19T13:02:25;22.67;60.84
64918;HTU21D;52176;44.858;38.372;2022-10-19T13:04:53;22.60;60.97
64918;HTU21D;52176;44.858;38.372;2022-10-19T13:07:18;22.53;61.17
64918;HTU21D;52176;44.858;38.372;2022-10-19T13:09:45;22.46;61.28
64918;HTU21D;52176;44.858;38.372;2022-10-19T13:14:41;22.27;61.65
64918;HTU21D;52176;44.858;38.372;2022-10-19T13:17:08;22.19;61.90
64918;HTU21D;52176;44.858;38.372;2022-10-19T13:19:33;22.09;62.13
64918;HTU21D;52176;44.858;38.372;2022-10-19T13:29:28;21.69;63.11
64918;HTU21D;52176;44.858;38.372;2022-10-19T13:34:47;21.47;63.61
64918;HTU21D;52176;44.858;38.372;2022-10-19T13:37:13;21.37;63.89
64918;HTU21D;52176;44.858;38.372;2022-10-19T13:39:40;21.28;64.12
64918;HTU21D;52176;44.858;38.372;2022-10-19T13:42:21;21.20;64.34
64918;HTU21D;52176;44.858;38.372;2022-10-19T13:44:47;21.09;64.59
64918;HTU21D;52176;44.858;38.372;2022-10-19T13:47:22;21.02;64.86
64918;HTU21D;52176;44.858;38.372;2022-10-19T14:07:44;20.30;66.62
64918;HTU21D;52176;44.858;38.372;2022-10-19T14:12:39;20.13;67.10
64918;HTU21D;52176;44.858;38.372;2022-10-19T14:17:44;19.90;67.57
64918;HTU21D;52176;44.858;38.372;2022-10-19T14:22:54;19.69;68.14
64918;HTU21D;52176;44.858;38.372;2022-10-19T14:25:24;19.58;68.46
64918;HTU21D;52176;44.858;38.372;2022-10-19T14:28:03;19.48;68.76
64918;HTU21D;52176;44.858;38.372;2022-10-19T14:30:30;19.35;69.00
64918;HTU21D;52176;44.858;38.372;2022-10-19T14:32:58;19.22;69.43
64918;HTU21D;52176;44.858;38.372;2022-10-19T14:35:28;19.08;69.65
64918;HTU21D;52176;44.858;38.372;2022-10-19T14:37:55;18.89;70.00
64918;HTU21D;52176;44.858;38.372;2022-10-19T14:40:28;18.74;70.38
64918;HTU21D;52176;44.858;38.372;2022-10-19T14:42:55;18.61;70.58
64918;HTU21D;52176;44.858;38.372;2022-10-19T14:45:26;18.43;70.85
64918;HTU21D;52176;44.858;38.372;2022-10-19T14:47:56;18.27;71.21
64918;HTU21D;52176;44.858;38.372;2022-10-19T14:50:27;18.13;71.55
64918;HTU21D;52176;44.858;38.372;2022-10-19T14:52:59;17.99;71.89
64918;HTU21D;52176;44.858;38.372;2022-10-19T14:55:26;17.88;72.11
64918;HTU21D;52176;44.858;38.372;2022-10-19T14:57:56;17.76;72.27
64918;HTU21D;52176;44.858;38.372;2022-10-19T15:00:22;17.64;72.68
64918;HTU21D;52176;44.858;38.372;2022-10-19T15:03:00;17.52;73.06
64918;HTU21D;52176;44.858;38.372;2022-10-19T15:05:30;17.40;73.38
64918;HTU21D;52176;44.858;38.372;2022-10-19T15:07:57;17.29;73.61
64918;HTU21D;52176;44.858;38.372;2022-10-19T15:10:43;17.17;73.75
64918;HTU21D;52176;44.858;38.372;2022-10-19T15:13:17;17.06;74.03
64918;HTU21D;52176;44.858;38.372;2022-10-19T15:15:48;16.95;74.33
64918;HTU21D;52176;44.858;38.372;2022-10-19T15:18:15;16.87;74.54
64918;HTU21D;52176;44.858;38.372;2022-10-19T15:20:41;16.76;74.72
64918;HTU21D;52176;44.858;38.372;2022-10-19T15:26:10;16.58;75.03
64918;HTU21D;52176;44.858;38.372;2022-10-19T15:28:37;16.46;75.16
64918;HTU21D;52176;44.858;38.372;2022-10-19T15:33:49;16.18;75.41
64918;HTU21D;52176;44.858;38.372;2022-10-19T15:36:15;16.06;75.94
64918;HTU21D;52176;44.858;38.372;2022-10-19T15:38:45;16.02;76.37
64918;HTU21D;52176;44.858;38.372;2022-10-19T15:41:31;15.97;76.60
64918;HTU21D;52176;44.858;38.372;2022-10-19T15:43:58;15.91;76.79
64918;HTU21D;52176;44.858;38.372;2022-10-19T15:48:58;15.81;77.29
64918;HTU21D;52176;44.858;38.372;2022-10-19T15:53:59;15.73;77.87
64918;HTU21D;52176;44.858;38.372;2022-10-19T15:56:27;15.69;77.95
64918;HTU21D;52176;44.858;38.372;2022-10-19T15:58:54;15.66;78.20
64918;HTU21D;52176;44.858;38.372;2022-10-19T16:01:21;15.60;78.40
64918;HTU21D;52176;44.858;38.372;2022-10-19T16:03:48;15.57;78.66
64918;HTU21D;52176;44.858;38.372;2022-10-19T16:06:14;15.51;78.92
64918;HTU21D;52176;44.858;38.372;2022-10-19T16:08:40;15.47;79.14
64918;HTU21D;52176;44.858;38.372;2022-10-19T16:11:08;15.43;79.32
64918;HTU21D;52176;44.858;38.372;2022-10-19T16:13:36;15.41;79.46
64918;HTU21D;52176;44.858;38.372;2022-10-19T16:16:05;15.36;79.58
64918;HTU21D;52176;44.858;38.372;2022-10-19T16:18:31;15.31;79.71
64918;HTU21D;52176;44.858;38.372;2022-10-19T16:20:57;15.28;79.81
64918;HTU21D;52176;44.858;38.372;2022-10-19T16:23:23;15.23;79.94
64918;HTU21D;52176;44.858;38.372;2022-10-19T16:25:49;15.17;80.10
64918;HTU21D;52176;44.858;38.372;2022-10-19T16:28:15;15.11;80.24
64918;HTU21D;52176;44.858;38.372;2022-10-19T16:30:41;15.08;80.38
64918;HTU21D;52176;44.858;38.372;2022-10-19T16:33:07;15.00;80.44
64918;HTU21D;52176;44.858;38.372;2022-10-19T16:35:33;14.95;80.56
64918;HTU21D;52176;44.858;38.372;2022-10-19T16:37:58;14.88;80.59
64918;HTU21D;52176;44.858;38.372;2022-10-19T16:40:24;14.81;80.77
64918;HTU21D;52176;44.858;38.372;2022-10-19T16:42:50;14.75;80.88
64918;HTU21D;52176;44.858;38.372;2022-10-19T16:45:16;14.70;80.94
64918;HTU21D;52176;44.858;38.372;2022-10-19T16:47:42;14.65;81.03
64918;HTU21D;52176;44.858;38.372;2022-10-19T16:50:09;14.57;81.13
64918;HTU21D;52176;44.858;38.372;2022-10-19T16:52:35;14.53;81.23
64918;HTU21D;52176;44.858;38.372;2022-10-19T16:55:01;14.48;81.36
64918;HTU21D;52176;44.858;38.372;2022-10-19T16:57:27;14.43;81.49
64918;HTU21D;52176;44.858;38.372;2022-10-19T16:59:53;14.39;81.64
64918;HTU21D;52176;44.858;38.372;2022-10-19T17:02:19;14.34;81.72
64918;HTU21D;52176;44.858;38.372;2022-10-19T17:04:45;14.27;81.86
64918;HTU21D;52176;44.858;38.372;2022-10-19T17:07:11;14.21;81.99
64918;HTU21D;52176;44.858;38.372;2022-10-19T17:09:37;14.17;82.14
64918;HTU21D;52176;44.858;38.372;2022-10-19T17:12:04;14.12;82.23
64918;HTU21D;52176;44.858;38.372;2022-10-19T17:14:30;14.07;82.28
64918;HTU21D;52176;44.858;38.372;2022-10-19T17:16:56;14.03;82.36
64918;HTU21D;52176;44.858;38.372;2022-10-19T17:19:22;13.97;82.33
64918;HTU21D;52176;44.858;38.372;2022-10-19T17:21:48;13.91;82.30
64918;HTU21D;52176;44.858;38.372;2022-10-19T17:24:15;13.84;82.36
64918;HTU21D;52176;44.858;38.372;2022-10-19T17:26:41;13.76;82.51
64918;HTU21D;52176;44.858;38.372;2022-10-19T17:29:07;13.70;82.70
64918;HTU21D;52176;44.858;38.372;2022-10-19T17:31:34;13.69;82.88
64918;HTU21D;52176;44.858;38.372;2022-10-19T17:34:01;13.66;83.00
64918;HTU21D;52176;44.858;38.372;2022-10-19T17:36:28;13.63;83.10
64918;HTU21D;52176;44.858;38.372;2022-10-19T17:38:55;13.61;83.17
64918;HTU21D;52176;44.858;38.372;2022-10-19T17:41:23;13.55;83.18
64918;HTU21D;52176;44.858;38.372;2022-10-19T17:43:49;13.49;83.21
64918;HTU21D;52176;44.858;38.372;2022-10-19T17:46:28;13.44;83.29
64918;HTU21D;52176;44.858;38.372;2022-10-19T17:48:55;13.39;83.33
64918;HTU21D;52176;44.858;38.372;2022-10-19T17:51:22;13.33;83.39
64918;HTU21D;52176;44.858;38.372;2022-10-19T17:53:48;13.27;83.39